sensor_id;sensor_type;location;lat;lon;timestamp;temperature;humidity
35325;DHT22;35135;47.510;19.036;2023-06-14T00:01:47;23.70;45.80
35325;DHT22;35135;47.510;19.036;2023-06-14T00:04:13;23.60;45.80
35325;DHT22;35135;47.510;19.036;2023-06-14T00:06:39;23.60;46.00
35325;DHT22;35135;47.510;19.036;2023-06-14T00:09:05;23.60;46.80
35325;DHT22;35135;47.510;19.036;2023-06-14T00:11:31;23.60;46.40
35325;DHT22;35135;47.510;19.036;2023-06-14T00:13:57;23.60;46.30
35325;DHT22;35135;47.510;19.036;2023-06-14T00:16:23;23.60;46.00
35325;DHT22;35135;47.510;19.036;2023-06-14T00:18:49;23.60;46.20
35325;DHT22;35135;47.510;19.036;2023-06-14T00:21:14;23.60;46.30
35325;DHT22;35135;47.510;19.036;2023-06-14T00:23:40;23.60;46.40
35325;DHT22;35135;47.510;19.036;2023-06-14T00:26:06;23.60;46.60
35325;DHT22;35135;47.510;19.036;2023-06-14T00:28:31;23.70;46.40
35325;DHT22;35135;47.510;19.036;2023-06-14T00:30:57;23.70;46.40
35325;DHT22;35135;47.510;19.036;2023-06-14T00:33:23;23.80;46.40
35325;DHT22;35135;47.510;19.036;2023-06-14T00:35:49;23.80;46.30
35325;DHT22;35135;47.510;19.036;2023-06-14T00:38:15;23.80;46.20
35325;DHT22;35135;47.510;19.036;2023-06-14T00:40:41;23.90;46.10
35325;DHT22;35135;47.510;19.036;2023-06-14T00:43:07;23.90;45.90
35325;DHT22;35135;47.510;19.036;2023-06-14T00:45:32;23.90;45.80
35325;DHT22;35135;47.510;19.036;2023-06-14T00:48:02;23.90;45.70
35325;DHT22;35135;47.510;19.036;2023-06-14T00:50:28;23.90;45.70
35325;DHT22;35135;47.510;19.036;2023-06-14T00:52:56;24.00;45.50
35325;DHT22;35135;47.510;19.036;2023-06-14T00:55:22;23.90;45.60
35325;DHT22;35135;47.510;19.036;2023-06-14T00:57:48;23.90;45.70
35325;DHT22;35135;47.510;19.036;2023-06-14T01:00:15;23.90;45.20
35325;DHT22;35135;47.510;19.036;2023-06-14T01:02:40;23.90;45.80
35325;DHT22;35135;47.510;19.036;2023-06-14T01:05:08;23.80;45.80
35325;DHT22;35135;47.510;19.036;2023-06-14T01:07:43;23.90;45.70
35325;DHT22;35135;47.510;19.036;2023-06-14T01:13:12;23.80;45.70
35325;DHT22;35135;47.510;19.036;2023-06-14T01:15:42;23.80;45.70
35325;DHT22;35135;47.510;19.036;2023-06-14T01:18:08;23.80;45.50
35325;DHT22;35135;47.510;19.036;2023-06-14T01:20:43;23.70;45.50
35325;DHT22;35135;47.510;19.036;2023-06-14T01:23:21;23.70;46.00
35325;DHT22;35135;47.510;19.036;2023-06-14T01:25:49;23.70;45.80
35325;DHT22;35135;47.510;19.036;2023-06-14T01:28:19;23.80;45.50
35325;DHT22;35135;47.510;19.036;2023-06-14T01:30:48;23.70;45.80
35325;DHT22;35135;47.510;19.036;2023-06-14T01:33:21;23.70;45.90
35325;DHT22;35135;47.510;19.036;2023-06-14T01:35:51;23.80;45.90
35325;DHT22;35135;47.510;19.036;2023-06-14T01:38:20;23.80;45.80
35325;DHT22;35135;47.510;19.036;2023-06-14T01:40:46;23.80;45.70
35325;DHT22;35135;47.510;19.036;2023-06-14T01:43:14;23.80;45.60
35325;DHT22;35135;47.510;19.036;2023-06-14T01:45:42;23.80;45.80
35325;DHT22;35135;47.510;19.036;2023-06-14T01:48:08;23.80;45.60
35325;DHT22;35135;47.510;19.036;2023-06-14T01:50:34;23.80;45.60
35325;DHT22;35135;47.510;19.036;2023-06-14T01:53:00;23.80;45.70
35325;DHT22;35135;47.510;19.036;2023-06-14T01:55:26;23.90;45.60
35325;DHT22;35135;47.510;19.036;2023-06-14T01:57:53;23.90;45.60
35325;DHT22;35135;47.510;19.036;2023-06-14T02:00:19;23.90;45.60
35325;DHT22;35135;47.510;19.036;2023-06-14T02:02:45;23.90;45.60
35325;DHT22;35135;47.510;19.036;2023-06-14T02:05:11;23.90;45.60
35325;DHT22;35135;47.510;19.036;2023-06-14T02:07:37;23.90;45.40
35325;DHT22;35135;47.510;19.036;2023-06-14T02:10:04;23.90;45.70
35325;DHT22;35135;47.510;19.036;2023-06-14T02:12:29;23.80;45.70
35325;DHT22;35135;47.510;19.036;2023-06-14T02:14:55;23.90;45.60
35325;DHT22;35135;47.510;19.036;2023-06-14T02:17:22;23.80;45.60
35325;DHT22;35135;47.510;19.036;2023-06-14T02:19:47;23.90;45.60
35325;DHT22;35135;47.510;19.036;2023-06-14T02:22:14;23.90;45.60
35325;DHT22;35135;47.510;19.036;2023-06-14T02:24:41;23.90;45.70
35325;DHT22;35135;47.510;19.036;2023-06-14T02:27:07;23.90;45.70
35325;DHT22;35135;47.510;19.036;2023-06-14T02:29:36;23.90;45.70
35325;DHT22;35135;47.510;19.036;2023-06-14T02:32:01;23.90;45.60
35325;DHT22;35135;47.510;19.036;2023-06-14T02:34:27;23.90;45.60
35325;DHT22;35135;47.510;19.036;2023-06-14T02:36:53;23.80;45.70
35325;DHT22;35135;47.510;19.036;2023-06-14T02:39:20;23.70;45.70
35325;DHT22;35135;47.510;19.036;2023-06-14T02:41:49;23.70;45.70
35325;DHT22;35135;47.510;19.036;2023-06-14T02:44:17;23.70;45.90
35325;DHT22;35135;47.510;19.036;2023-06-14T02:46:43;23.70;45.90
35325;DHT22;35135;47.510;19.036;2023-06-14T02:49:09;23.70;45.60
35325;DHT22;35135;47.510;19.036;2023-06-14T02:51:35;23.70;45.80
35325;DHT22;35135;47.510;19.036;2023-06-14T02:54:01;23.70;45.70
35325;DHT22;35135;47.510;19.036;2023-06-14T02:56:26;23.70;45.70
35325;DHT22;35135;47.510;19.036;2023-06-14T02:58:53;23.70;45.90
35325;DHT22;35135;47.510;19.036;2023-06-14T03:01:19;23.70;45.80
35325;DHT22;35135;47.510;19.036;2023-06-14T03:03:46;23.70;45.80
35325;DHT22;35135;47.510;19.036;2023-06-14T03:06:11;23.70;45.90
35325;DHT22;35135;47.510;19.036;2023-06-14T03:08:39;23.70;45.80
35325;DHT22;35135;47.510;19.036;2023-06-14T03:11:07;23.60;45.90
35325;DHT22;35135;47.510;19.036;2023-06-14T03:13:34;23.60;46.10
35325;DHT22;35135;47.510;19.036;2023-06-14T03:16:00;23.50;46.00
35325;DHT22;35135;47.510;19.036;2023-06-14T03:18:31;23.50;46.10
35325;DHT22;35135;47.510;19.036;2023-06-14T03:21:01;23.60;46.90
35325;DHT22;35135;47.510;19.036;2023-06-14T03:23:26;23.60;46.30
35325;DHT22;35135;47.510;19.036;2023-06-14T03:25:52;23.60;45.90
35325;DHT22;35135;47.510;19.036;2023-06-14T03:28:18;23.60;45.90
35325;DHT22;35135;47.510;19.036;2023-06-14T03:30:43;23.60;46.30
35325;DHT22;35135;47.510;19.036;2023-06-14T03:33:09;23.60;46.20
35325;DHT22;35135;47.510;19.036;2023-06-14T03:35:36;23.60;46.20
35325;DHT22;35135;47.510;19.036;2023-06-14T03:38:01;23.60;46.10
35325;DHT22;35135;47.510;19.036;2023-06-14T03:40:28;23.70;46.30
35325;DHT22;35135;47.510;19.036;2023-06-14T03:42:54;23.60;45.90
35325;DHT22;35135;47.510;19.036;2023-06-14T03:45:20;23.60;46.30
35325;DHT22;35135;47.510;19.036;2023-06-14T03:47:46;23.60;46.40
35325;DHT22;35135;47.510;19.036;2023-06-14T03:50:12;23.50;46.20
35325;DHT22;35135;47.510;19.036;2023-06-14T03:52:38;23.50;46.40
35325;DHT22;35135;47.510;19.036;2023-06-14T03:55:04;23.50;46.30
35325;DHT22;35135;47.510;19.036;2023-06-14T03:57:30;23.50;46.20
35325;DHT22;35135;47.510;19.036;2023-06-14T03:59:56;23.50;46.30
35325;DHT22;35135;47.510;19.036;2023-06-14T04:02:22;23.60;46.40
35325;DHT22;35135;47.510;19.036;2023-06-14T04:04:48;23.60;46.10
35325;DHT22;35135;47.510;19.036;2023-06-14T04:07:17;23.60;46.20
35325;DHT22;35135;47.510;19.036;2023-06-14T04:09:46;23.60;46.30
35325;DHT22;35135;47.510;19.036;2023-06-14T04:12:12;23.70;46.10
35325;DHT22;35135;47.510;19.036;2023-06-14T04:14:39;23.80;46.60
35325;DHT22;35135;47.510;19.036;2023-06-14T04:17:05;23.90;45.80
35325;DHT22;35135;47.510;19.036;2023-06-14T04:19:31;23.90;45.80
35325;DHT22;35135;47.510;19.036;2023-06-14T04:21:57;23.80;45.80
35325;DHT22;35135;47.510;19.036;2023-06-14T04:24:24;23.90;45.90
35325;DHT22;35135;47.510;19.036;2023-06-14T04:27:00;23.90;45.80
35325;DHT22;35135;47.510;19.036;2023-06-14T04:29:29;24.00;45.90
35325;DHT22;35135;47.510;19.036;2023-06-14T04:31:55;24.10;45.60
35325;DHT22;35135;47.510;19.036;2023-06-14T04:34:26;24.10;45.60
35325;DHT22;35135;47.510;19.036;2023-06-14T04:36:56;24.10;45.50
35325;DHT22;35135;47.510;19.036;2023-06-14T04:39:22;24.20;45.60
35325;DHT22;35135;47.510;19.036;2023-06-14T04:41:48;24.20;45.40
35325;DHT22;35135;47.510;19.036;2023-06-14T04:44:18;24.20;45.50
35325;DHT22;35135;47.510;19.036;2023-06-14T04:46:45;24.30;45.30
35325;DHT22;35135;47.510;19.036;2023-06-14T04:49:15;24.30;45.40
35325;DHT22;35135;47.510;19.036;2023-06-14T04:51:42;24.40;45.30
35325;DHT22;35135;47.510;19.036;2023-06-14T04:54:11;24.40;45.20
35325;DHT22;35135;47.510;19.036;2023-06-14T04:56:40;24.40;45.30
35325;DHT22;35135;47.510;19.036;2023-06-14T04:59:06;24.40;45.40
35325;DHT22;35135;47.510;19.036;2023-06-14T05:01:32;24.50;45.40
35325;DHT22;35135;47.510;19.036;2023-06-14T05:03:58;24.60;45.30
35325;DHT22;35135;47.510;19.036;2023-06-14T05:06:25;24.70;45.40
35325;DHT22;35135;47.510;19.036;2023-06-14T05:08:53;24.80;45.40
35325;DHT22;35135;47.510;19.036;2023-06-14T05:11:19;24.80;45.30
35325;DHT22;35135;47.510;19.036;2023-06-14T05:13:45;24.90;45.60
35325;DHT22;35135;47.510;19.036;2023-06-14T05:16:12;25.00;45.40
35325;DHT22;35135;47.510;19.036;2023-06-14T05:18:38;25.00;45.10
35325;DHT22;35135;47.510;19.036;2023-06-14T05:21:05;25.00;45.80
35325;DHT22;35135;47.510;19.036;2023-06-14T05:23:31;25.00;45.20
35325;DHT22;35135;47.510;19.036;2023-06-14T05:25:57;25.00;45.00
35325;DHT22;35135;47.510;19.036;2023-06-14T05:28:23;25.00;45.10
35325;DHT22;35135;47.510;19.036;2023-06-14T05:30:49;25.00;44.90
35325;DHT22;35135;47.510;19.036;2023-06-14T05:33:14;25.00;45.20
35325;DHT22;35135;47.510;19.036;2023-06-14T05:35:40;25.00;45.00
35325;DHT22;35135;47.510;19.036;2023-06-14T05:38:06;24.90;45.90
35325;DHT22;35135;47.510;19.036;2023-06-14T05:40:33;24.90;45.30
35325;DHT22;35135;47.510;19.036;2023-06-14T05:42:58;24.90;45.10
35325;DHT22;35135;47.510;19.036;2023-06-14T05:45:24;24.80;45.30
35325;DHT22;35135;47.510;19.036;2023-06-14T05:47:50;24.80;45.50
35325;DHT22;35135;47.510;19.036;2023-06-14T05:50:16;24.80;45.80
35325;DHT22;35135;47.510;19.036;2023-06-14T05:52:41;24.90;45.40
35325;DHT22;35135;47.510;19.036;2023-06-14T05:55:07;25.00;45.40
35325;DHT22;35135;47.510;19.036;2023-06-14T05:57:33;25.00;45.40
35325;DHT22;35135;47.510;19.036;2023-06-14T05:59:59;25.00;45.20
35325;DHT22;35135;47.510;19.036;2023-06-14T06:02:24;25.10;45.40
35325;DHT22;35135;47.510;19.036;2023-06-14T06:04:50;25.10;44.90
35325;DHT22;35135;47.510;19.036;2023-06-14T06:07:16;25.10;44.90
35325;DHT22;35135;47.510;19.036;2023-06-14T06:09:41;25.20;45.00
35325;DHT22;35135;47.510;19.036;2023-06-14T06:12:07;25.20;44.80
35325;DHT22;35135;47.510;19.036;2023-06-14T06:14:33;25.20;44.80
35325;DHT22;35135;47.510;19.036;2023-06-14T06:16:59;25.20;44.70
35325;DHT22;35135;47.510;19.036;2023-06-14T06:19:25;25.30;44.70
35325;DHT22;35135;47.510;19.036;2023-06-14T06:21:50;25.30;44.50
35325;DHT22;35135;47.510;19.036;2023-06-14T06:24:16;25.30;44.60
35325;DHT22;35135;47.510;19.036;2023-06-14T06:26:42;25.30;44.50
35325;DHT22;35135;47.510;19.036;2023-06-14T06:29:08;25.30;44.50
35325;DHT22;35135;47.510;19.036;2023-06-14T06:31:33;25.30;44.40
35325;DHT22;35135;47.510;19.036;2023-06-14T06:33:59;25.40;44.10
35325;DHT22;35135;47.510;19.036;2023-06-14T06:36:25;25.30;44.20
35325;DHT22;35135;47.510;19.036;2023-06-14T06:38:51;25.30;44.40
35325;DHT22;35135;47.510;19.036;2023-06-14T06:41:16;25.20;44.60
35325;DHT22;35135;47.510;19.036;2023-06-14T06:43:42;25.10;44.60
35325;DHT22;35135;47.510;19.036;2023-06-14T06:46:08;25.00;44.80
35325;DHT22;35135;47.510;19.036;2023-06-14T06:48:33;25.00;44.90
35325;DHT22;35135;47.510;19.036;2023-06-14T06:50:59;24.90;45.00
35325;DHT22;35135;47.510;19.036;2023-06-14T06:53:25;24.80;45.60
35325;DHT22;35135;47.510;19.036;2023-06-14T06:55:51;24.80;45.00
35325;DHT22;35135;47.510;19.036;2023-06-14T06:58:16;24.70;45.30
35325;DHT22;35135;47.510;19.036;2023-06-14T07:00:42;24.60;45.30
35325;DHT22;35135;47.510;19.036;2023-06-14T07:03:08;24.60;45.40
35325;DHT22;35135;47.510;19.036;2023-06-14T07:05:34;24.60;45.50
35325;DHT22;35135;47.510;19.036;2023-06-14T07:08:00;24.50;45.60
35325;DHT22;35135;47.510;19.036;2023-06-14T07:10:26;24.50;45.60
35325;DHT22;35135;47.510;19.036;2023-06-14T07:12:51;24.50;45.70
35325;DHT22;35135;47.510;19.036;2023-06-14T07:15:17;24.40;45.90
35325;DHT22;35135;47.510;19.036;2023-06-14T07:17:43;24.40;46.00
35325;DHT22;35135;47.510;19.036;2023-06-14T07:20:09;24.40;46.00
35325;DHT22;35135;47.510;19.036;2023-06-14T07:22:38;24.40;46.10
35325;DHT22;35135;47.510;19.036;2023-06-14T07:25:07;24.40;46.10
35325;DHT22;35135;47.510;19.036;2023-06-14T07:27:33;24.40;46.00
35325;DHT22;35135;47.510;19.036;2023-06-14T07:29:59;24.40;46.00
35325;DHT22;35135;47.510;19.036;2023-06-14T07:32:25;24.40;46.10
35325;DHT22;35135;47.510;19.036;2023-06-14T07:34:50;24.40;46.10
35325;DHT22;35135;47.510;19.036;2023-06-14T07:37:16;24.40;46.30
35325;DHT22;35135;47.510;19.036;2023-06-14T07:39:42;24.40;46.10
35325;DHT22;35135;47.510;19.036;2023-06-14T07:42:08;24.50;46.10
35325;DHT22;35135;47.510;19.036;2023-06-14T07:44:33;24.50;46.00
35325;DHT22;35135;47.510;19.036;2023-06-14T07:46:59;24.50;46.10
35325;DHT22;35135;47.510;19.036;2023-06-14T07:49:25;24.50;46.00
35325;DHT22;35135;47.510;19.036;2023-06-14T07:51:51;24.50;45.90
35325;DHT22;35135;47.510;19.036;2023-06-14T07:54:19;24.40;45.80
35325;DHT22;35135;47.510;19.036;2023-06-14T07:56:45;24.40;46.00
35325;DHT22;35135;47.510;19.036;2023-06-14T07:59:10;24.30;46.00
35325;DHT22;35135;47.510;19.036;2023-06-14T08:01:36;24.30;45.90
35325;DHT22;35135;47.510;19.036;2023-06-14T08:04:02;24.30;46.00
35325;DHT22;35135;47.510;19.036;2023-06-14T08:06:27;24.30;46.00
35325;DHT22;35135;47.510;19.036;2023-06-14T08:08:53;24.30;46.10
35325;DHT22;35135;47.510;19.036;2023-06-14T08:11:19;24.40;46.10
35325;DHT22;35135;47.510;19.036;2023-06-14T08:13:44;24.40;45.90
35325;DHT22;35135;47.510;19.036;2023-06-14T08:16:10;24.40;46.00
35325;DHT22;35135;47.510;19.036;2023-06-14T08:18:36;24.50;46.00
35325;DHT22;35135;47.510;19.036;2023-06-14T08:21:02;24.50;45.80
35325;DHT22;35135;47.510;19.036;2023-06-14T08:23:29;24.60;45.70
35325;DHT22;35135;47.510;19.036;2023-06-14T08:25:55;24.60;45.40
35325;DHT22;35135;47.510;19.036;2023-06-14T08:28:20;24.50;45.50
35325;DHT22;35135;47.510;19.036;2023-06-14T08:30:46;24.50;45.60
35325;DHT22;35135;47.510;19.036;2023-06-14T08:33:12;24.50;45.50
35325;DHT22;35135;47.510;19.036;2023-06-14T08:35:37;24.50;45.60
35325;DHT22;35135;47.510;19.036;2023-06-14T08:38:05;24.50;45.50
35325;DHT22;35135;47.510;19.036;2023-06-14T08:40:31;24.50;45.40
35325;DHT22;35135;47.510;19.036;2023-06-14T08:42:57;24.50;45.50
35325;DHT22;35135;47.510;19.036;2023-06-14T08:45:23;24.50;45.60
35325;DHT22;35135;47.510;19.036;2023-06-14T08:47:52;24.50;45.60
35325;DHT22;35135;47.510;19.036;2023-06-14T08:50:26;24.50;45.60
35325;DHT22;35135;47.510;19.036;2023-06-14T08:52:56;24.40;45.60
35325;DHT22;35135;47.510;19.036;2023-06-14T08:55:27;24.40;45.60
35325;DHT22;35135;47.510;19.036;2023-06-14T08:57:57;24.40;45.70
35325;DHT22;35135;47.510;19.036;2023-06-14T09:00:24;24.40;45.50
35325;DHT22;35135;47.510;19.036;2023-06-14T09:02:51;24.40;45.60
35325;DHT22;35135;47.510;19.036;2023-06-14T09:05:23;24.40;45.60
35325;DHT22;35135;47.510;19.036;2023-06-14T09:07:49;24.40;45.40
35325;DHT22;35135;47.510;19.036;2023-06-14T09:10:16;24.40;45.40
35325;DHT22;35135;47.510;19.036;2023-06-14T09:12:42;24.40;45.50
35325;DHT22;35135;47.510;19.036;2023-06-14T09:15:10;24.40;45.40
35325;DHT22;35135;47.510;19.036;2023-06-14T09:17:37;24.50;45.50
35325;DHT22;35135;47.510;19.036;2023-06-14T09:20:04;24.40;45.50
35325;DHT22;35135;47.510;19.036;2023-06-14T09:22:37;24.40;45.20
35325;DHT22;35135;47.510;19.036;2023-06-14T09:25:04;24.40;45.10
35325;DHT22;35135;47.510;19.036;2023-06-14T09:27:30;24.40;45.30
35325;DHT22;35135;47.510;19.036;2023-06-14T09:29:56;24.40;45.40
35325;DHT22;35135;47.510;19.036;2023-06-14T09:32:22;24.40;45.50
35325;DHT22;35135;47.510;19.036;2023-06-14T09:34:48;24.40;45.40
35325;DHT22;35135;47.510;19.036;2023-06-14T09:37:29;24.40;45.30
35325;DHT22;35135;47.510;19.036;2023-06-14T09:39:56;24.40;45.50
35325;DHT22;35135;47.510;19.036;2023-06-14T09:42:22;24.40;45.50
35325;DHT22;35135;47.510;19.036;2023-06-14T09:44:52;24.40;45.00
35325;DHT22;35135;47.510;19.036;2023-06-14T09:47:19;24.40;44.90
35325;DHT22;35135;47.510;19.036;2023-06-14T09:49:45;24.40;45.20
35325;DHT22;35135;47.510;19.036;2023-06-14T09:52:19;24.40;45.20
35325;DHT22;35135;47.510;19.036;2023-06-14T09:54:46;24.50;44.30
35325;DHT22;35135;47.510;19.036;2023-06-14T09:57:23;24.40;45.40
35325;DHT22;35135;47.510;19.036;2023-06-14T09:59:56;24.40;44.90
35325;DHT22;35135;47.510;19.036;2023-06-14T10:02:35;24.40;44.10
35325;DHT22;35135;47.510;19.036;2023-06-14T10:05:07;24.40;44.80
35325;DHT22;35135;47.510;19.036;2023-06-14T10:07:52;24.40;44.10
35325;DHT22;35135;47.510;19.036;2023-06-14T10:10:19;24.40;44.10
35325;DHT22;35135;47.510;19.036;2023-06-14T10:12:45;24.40;44.30
35325;DHT22;35135;47.510;19.036;2023-06-14T10:15:17;24.40;43.70
35325;DHT22;35135;47.510;19.036;2023-06-14T10:17:57;24.40;44.10
35325;DHT22;35135;47.510;19.036;2023-06-14T10:20:37;24.40;43.80
35325;DHT22;35135;47.510;19.036;2023-06-14T10:23:13;24.40;43.90
35325;DHT22;35135;47.510;19.036;2023-06-14T10:25:42;24.40;44.00
35325;DHT22;35135;47.510;19.036;2023-06-14T10:28:18;24.40;43.10
35325;DHT22;35135;47.510;19.036;2023-06-14T10:31:04;24.40;43.00
35325;DHT22;35135;47.510;19.036;2023-06-14T10:33:31;24.50;43.20
35325;DHT22;35135;47.510;19.036;2023-06-14T10:39:00;24.50;42.50
35325;DHT22;35135;47.510;19.036;2023-06-14T10:41:29;24.50;42.70
35325;DHT22;35135;47.510;19.036;2023-06-14T10:46:53;24.50;42.70
35325;DHT22;35135;47.510;19.036;2023-06-14T10:49:20;24.50;41.90
35325;DHT22;35135;47.510;19.036;2023-06-14T10:51:57;24.50;42.10
35325;DHT22;35135;47.510;19.036;2023-06-14T10:54:23;24.50;40.80
35325;DHT22;35135;47.510;19.036;2023-06-14T10:56:53;24.40;42.00
35325;DHT22;35135;47.510;19.036;2023-06-14T10:59:20;24.50;41.80
35325;DHT22;35135;47.510;19.036;2023-06-14T11:04:50;24.50;41.70
35325;DHT22;35135;47.510;19.036;2023-06-14T11:07:46;24.50;42.30
35325;DHT22;35135;47.510;19.036;2023-06-14T11:12:39;24.50;42.00
35325;DHT22;35135;47.510;19.036;2023-06-14T11:15:08;24.40;42.10
35325;DHT22;35135;47.510;19.036;2023-06-14T11:17:34;24.50;42.00
35325;DHT22;35135;47.510;19.036;2023-06-14T11:20:09;24.50;42.00
35325;DHT22;35135;47.510;19.036;2023-06-14T11:22:40;24.50;41.70
35325;DHT22;35135;47.510;19.036;2023-06-14T11:25:09;24.50;41.90
35325;DHT22;35135;47.510;19.036;2023-06-14T11:27:35;24.50;42.20
35325;DHT22;35135;47.510;19.036;2023-06-14T11:30:01;24.50;41.80
35325;DHT22;35135;47.510;19.036;2023-06-14T11:32:27;24.50;41.50
35325;DHT22;35135;47.510;19.036;2023-06-14T11:34:53;24.50;42.50
35325;DHT22;35135;47.510;19.036;2023-06-14T11:37:19;24.50;42.10
35325;DHT22;35135;47.510;19.036;2023-06-14T11:39:45;24.50;42.70
35325;DHT22;35135;47.510;19.036;2023-06-14T11:42:16;24.50;43.30
35325;DHT22;35135;47.510;19.036;2023-06-14T11:44:42;24.50;43.30
35325;DHT22;35135;47.510;19.036;2023-06-14T11:47:08;24.50;43.30
35325;DHT22;35135;47.510;19.036;2023-06-14T11:49:36;24.50;43.60
35325;DHT22;35135;47.510;19.036;2023-06-14T11:52:02;24.50;43.80
35325;DHT22;35135;47.510;19.036;2023-06-14T11:54:28;24.50;43.90
35325;DHT22;35135;47.510;19.036;2023-06-14T11:56:54;24.50;44.40
35325;DHT22;35135;47.510;19.036;2023-06-14T11:59:20;24.50;43.80
35325;DHT22;35135;47.510;19.036;2023-06-14T12:01:47;24.50;44.00
35325;DHT22;35135;47.510;19.036;2023-06-14T12:04:13;24.50;44.10
35325;DHT22;35135;47.510;19.036;2023-06-14T12:06:39;24.50;44.20
35325;DHT22;35135;47.510;19.036;2023-06-14T12:09:06;24.50;44.10
35325;DHT22;35135;47.510;19.036;2023-06-14T12:11:43;24.50;44.10
35325;DHT22;35135;47.510;19.036;2023-06-14T12:14:09;24.50;44.20
35325;DHT22;35135;47.510;19.036;2023-06-14T12:16:38;24.50;44.20
35325;DHT22;35135;47.510;19.036;2023-06-14T12:19:15;24.50;44.00
35325;DHT22;35135;47.510;19.036;2023-06-14T12:21:41;24.50;44.00
35325;DHT22;35135;47.510;19.036;2023-06-14T12:24:08;24.50;44.10
35325;DHT22;35135;47.510;19.036;2023-06-14T12:26:37;24.50;43.90
35325;DHT22;35135;47.510;19.036;2023-06-14T12:29:05;24.50;43.90
35325;DHT22;35135;47.510;19.036;2023-06-14T12:31:30;24.50;43.40
35325;DHT22;35135;47.510;19.036;2023-06-14T12:33:56;24.50;43.90
35325;DHT22;35135;47.510;19.036;2023-06-14T12:36:22;24.50;43.80
35325;DHT22;35135;47.510;19.036;2023-06-14T12:38:48;24.50;44.10
35325;DHT22;35135;47.510;19.036;2023-06-14T12:41:13;24.60;43.90
35325;DHT22;35135;47.510;19.036;2023-06-14T12:43:39;24.60;44.20
35325;DHT22;35135;47.510;19.036;2023-06-14T12:46:05;24.60;44.10
35325;DHT22;35135;47.510;19.036;2023-06-14T12:48:31;24.60;42.80
35325;DHT22;35135;47.510;19.036;2023-06-14T12:50:57;24.60;43.50
35325;DHT22;35135;47.510;19.036;2023-06-14T12:53:23;24.60;43.70
35325;DHT22;35135;47.510;19.036;2023-06-14T12:55:49;24.60;43.80
35325;DHT22;35135;47.510;19.036;2023-06-14T12:58:15;24.60;43.80
35325;DHT22;35135;47.510;19.036;2023-06-14T13:00:42;24.60;43.60
35325;DHT22;35135;47.510;19.036;2023-06-14T13:03:09;24.60;43.10
35325;DHT22;35135;47.510;19.036;2023-06-14T13:05:35;24.60;43.10
35325;DHT22;35135;47.510;19.036;2023-06-14T13:08:00;24.60;43.60
35325;DHT22;35135;47.510;19.036;2023-06-14T13:10:26;24.60;43.10
35325;DHT22;35135;47.510;19.036;2023-06-14T13:12:52;24.60;43.10
35325;DHT22;35135;47.510;19.036;2023-06-14T13:15:18;24.70;42.90
35325;DHT22;35135;47.510;19.036;2023-06-14T13:17:44;24.70;43.00
35325;DHT22;35135;47.510;19.036;2023-06-14T13:20:14;24.70;42.70
35325;DHT22;35135;47.510;19.036;2023-06-14T13:22:40;24.70;42.90
35325;DHT22;35135;47.510;19.036;2023-06-14T13:25:06;24.60;42.70
35325;DHT22;35135;47.510;19.036;2023-06-14T13:27:32;24.70;42.40
35325;DHT22;35135;47.510;19.036;2023-06-14T13:29:58;24.70;42.30
35325;DHT22;35135;47.510;19.036;2023-06-14T13:32:24;24.70;41.50
35325;DHT22;35135;47.510;19.036;2023-06-14T13:34:50;24.60;42.30
35325;DHT22;35135;47.510;19.036;2023-06-14T13:37:15;24.70;41.40
35325;DHT22;35135;47.510;19.036;2023-06-14T13:39:41;24.60;42.50
35325;DHT22;35135;47.510;19.036;2023-06-14T13:42:07;24.60;41.40
35325;DHT22;35135;47.510;19.036;2023-06-14T13:44:33;24.60;42.20
35325;DHT22;35135;47.510;19.036;2023-06-14T13:47:00;24.60;41.70
35325;DHT22;35135;47.510;19.036;2023-06-14T13:49:26;24.60;41.70
35325;DHT22;35135;47.510;19.036;2023-06-14T13:51:51;24.60;42.30
35325;DHT22;35135;47.510;19.036;2023-06-14T13:54:20;24.60;42.20
35325;DHT22;35135;47.510;19.036;2023-06-14T13:56:46;24.60;41.70
35325;DHT22;35135;47.510;19.036;2023-06-14T13:59:12;24.60;42.00
35325;DHT22;35135;47.510;19.036;2023-06-14T14:01:38;24.60;41.80
35325;DHT22;35135;47.510;19.036;2023-06-14T14:04:04;24.70;41.80
35325;DHT22;35135;47.510;19.036;2023-06-14T14:06:30;24.70;41.70
35325;DHT22;35135;47.510;19.036;2023-06-14T14:08:56;24.60;41.90
35325;DHT22;35135;47.510;19.036;2023-06-14T14:11:22;24.70;41.60
35325;DHT22;35135;47.510;19.036;2023-06-14T14:13:48;24.70;41.30
35325;DHT22;35135;47.510;19.036;2023-06-14T14:16:14;24.60;41.80
35325;DHT22;35135;47.510;19.036;2023-06-14T14:18:40;24.60;41.70
35325;DHT22;35135;47.510;19.036;2023-06-14T14:21:05;24.60;41.30
35325;DHT22;35135;47.510;19.036;2023-06-14T14:23:31;24.60;41.30
35325;DHT22;35135;47.510;19.036;2023-06-14T14:25:57;24.60;41.60
35325;DHT22;35135;47.510;19.036;2023-06-14T14:28:23;24.60;41.50
35325;DHT22;35135;47.510;19.036;2023-06-14T14:30:48;24.60;41.00
35325;DHT22;35135;47.510;19.036;2023-06-14T14:33:14;24.60;41.10
35325;DHT22;35135;47.510;19.036;2023-06-14T14:35:44;24.60;41.60
35325;DHT22;35135;47.510;19.036;2023-06-14T14:38:14;24.60;41.50
35325;DHT22;35135;47.510;19.036;2023-06-14T14:40:41;24.60;41.40
35325;DHT22;35135;47.510;19.036;2023-06-14T14:43:07;24.60;40.70
35325;DHT22;35135;47.510;19.036;2023-06-14T14:45:33;24.60;41.60
35325;DHT22;35135;47.510;19.036;2023-06-14T14:48:00;24.60;41.30
35325;DHT22;35135;47.510;19.036;2023-06-14T14:50:26;24.60;41.30
35325;DHT22;35135;47.510;19.036;2023-06-14T14:52:52;24.60;41.20
35325;DHT22;35135;47.510;19.036;2023-06-14T14:55:17;24.60;40.90
35325;DHT22;35135;47.510;19.036;2023-06-14T14:57:45;24.60;41.40
35325;DHT22;35135;47.510;19.036;2023-06-14T15:00:11;24.60;41.00
35325;DHT22;35135;47.510;19.036;2023-06-14T15:02:37;24.60;41.50
35325;DHT22;35135;47.510;19.036;2023-06-14T15:05:03;24.60;40.50
35325;DHT22;35135;47.510;19.036;2023-06-14T15:07:29;24.60;41.10
35325;DHT22;35135;47.510;19.036;2023-06-14T15:09:55;24.60;41.00
35325;DHT22;35135;47.510;19.036;2023-06-14T15:12:21;24.60;41.20
35325;DHT22;35135;47.510;19.036;2023-06-14T15:14:50;24.60;40.60
35325;DHT22;35135;47.510;19.036;2023-06-14T15:17:16;24.60;41.30
35325;DHT22;35135;47.510;19.036;2023-06-14T15:19:44;24.60;41.10
35325;DHT22;35135;47.510;19.036;2023-06-14T15:22:09;24.60;40.60
35325;DHT22;35135;47.510;19.036;2023-06-14T15:24:35;24.60;41.00
35325;DHT22;35135;47.510;19.036;2023-06-14T15:27:00;24.60;41.20
35325;DHT22;35135;47.510;19.036;2023-06-14T15:29:26;24.60;40.90